Time;durP1;ratioP1;P1;durP2;ratioP2;P2;SDS_P1;SDS_P2;PMS_P1;PMS_P2;Temp;Humidity;BMP_temperature;BMP_pressure;BME280_temperature;BME280_humidity;BME280_pressure;Samples;Min_cycle;Max_cycle;Signal;HPM_P1;HPM_P2
2022/01/24 00:01:17;;;;;;;12.73;7.97;;;;;;;1.89;100.00;100237.72;4983436;28;20447;-52
2022/01/24 00:03:42;;;;;;;11.43;7.47;;;;;;;1.88;100.00;100236.84;4981981;28;20030;-54
2022/01/24 00:06:11;;;;;;;12.10;7.33;;;;;;;1.80;100.00;100236.56;4982707;28;20488;-52
2022/01/24 00:08:36;;;;;;;13.00;7.70;;;;;;;1.78;100.00;100244.88;4982909;28;20493;-53
2022/01/24 00:11:07;;;;;;;13.53;7.47;;;;;;;1.71;100.00;100246.28;4981486;28;20508;-53
2022/01/24 00:14:31;;;;;;;13.90;7.63;;;;;;;1.61;100.00;100243.31;4980275;28;20034;-53
2022/01/24 00:17:00;;;;;;;;;;;;;;;1.55;100.00;100248.09;4981358;28;20061;-53
2022/01/24 00:27:38;;;;;;;8.93;5.97;;;;;;;1.14;100.00;100264.00;4961489;28;20489;-56
2022/01/24 00:30:04;;;;;;;11.47;5.77;;;;;;;1.10;100.00;100267.19;4963340;28;20055;-55
2022/01/24 00:32:30;;;;;;;8.37;5.47;;;;;;;1.07;100.00;100269.53;4959900;28;20151;-54
2022/01/24 00:34:55;;;;;;;11.23;5.97;;;;;;;1.04;100.00;100264.34;4962558;28;20433;-56
2022/01/24 00:37:21;;;;;;;11.37;6.03;;;;;;;1.05;100.00;100263.56;4963686;28;20043;-56
2022/01/24 00:39:47;;;;;;;10.27;5.67;;;;;;;0.93;100.00;100269.78;4960859;28;20586;-57
2022/01/24 00:42:30;;;;;;;12.43;5.17;;;;;;;0.89;100.00;100269.59;4959940;28;20031;-56
2022/01/24 00:53:11;;;;;;;8.30;5.10;;;;;;;0.82;100.00;100277.66;4963412;28;20057;-52
2022/01/24 00:55:37;;;;;;;7.10;5.10;;;;;;;0.78;100.00;100268.22;4967488;28;20041;-55
2022/01/24 00:58:02;;;;;;;7.63;4.73;;;;;;;0.79;100.00;100270.84;4967510;28;20050;-56
2022/01/24 01:00:27;;;;;;;9.83;4.93;;;;;;;0.77;100.00;100271.53;4981735;28;20038;-54
2022/01/24 01:02:53;;;;;;;7.83;4.63;;;;;;;0.71;100.00;100271.28;4980487;28;20122;-54
2022/01/24 01:18:45;;;;;;;10.45;5.40;;;;;;;0.54;100.00;100267.97;4977599;28;20512;-56
2022/01/24 01:21:12;;;;;;;9.83;5.53;;;;;;;0.62;100.00;100268.31;4978059;28;20034;-56
2022/01/24 01:23:44;;;;;;;9.80;5.50;;;;;;;0.59;100.00;100265.66;4980283;28;20030;-56
2022/01/24 01:26:19;;;;;;;9.97;5.53;;;;;;;0.52;100.00;100261.97;4981300;28;20031;-56
2022/01/24 01:28:48;;;;;;;7.38;4.00;;;;;;;0.50;100.00;100261.06;4979796;28;20038;-51
2022/01/24 01:31:25;;;;;;;11.60;5.53;;;;;;;0.45;100.00;100259.97;4977985;28;20042;-55
2022/01/24 01:34:04;;;;;;;11.70;5.47;;;;;;;0.43;100.00;100246.41;4979518;28;20030;-55
2022/01/24 01:39:39;;;;;;;10.77;5.23;;;;;;;0.58;100.00;100257.22;4980226;28;20038;-55
2022/01/24 01:53:24;;;;;;;11.07;6.30;;;;;;;0.49;100.00;100256.78;4982502;28;20053;-54
2022/01/24 01:55:48;;;;;;;12.13;6.40;;;;;;;0.44;100.00;100255.69;4979369;28;20031;-55
2022/01/24 01:58:17;;;;;;;9.47;5.47;;;;;;;0.43;100.00;100248.91;4977174;28;20108;-53
2022/01/24 02:00:45;;;;;;;11.43;6.53;;;;;;;0.45;100.00;100247.34;4979534;28;20227;-56
2022/01/24 02:03:11;;;;;;;10.97;6.00;;;;;;;0.45;100.00;100243.19;4977816;28;20261;-53
2022/01/24 02:05:37;;;;;;;11.47;7.07;;;;;;;0.47;100.00;100245.75;4979846;28;20030;-56
2022/01/24 02:08:03;;;;;;;14.93;7.27;;;;;;;0.45;100.00;100247.34;4982659;28;20562;-55
2022/01/24 02:10:30;;;;;;;15.90;6.87;;;;;;;0.44;100.00;100248.13;4980144;28;20545;-56
2022/01/24 02:12:57;;;;;;;13.77;6.93;;;;;;;0.44;100.00;100243.97;4979073;28;20246;-53
2022/01/24 02:15:54;;;;;;;12.37;8.13;;;;;;;0.48;100.00;100232.34;4987605;28;20176;-56
2022/01/24 02:25:55;;;;;;;11.63;7.43;;;;;;;0.33;100.00;100236.69;4985260;28;20034;-54
2022/01/24 02:28:23;;;;;;;11.90;7.07;;;;;;;0.32;100.00;100235.81;4986209;28;20236;-55
2022/01/24 02:31:22;;;;;;;13.43;6.67;;;;;;;0.31;100.00;100240.78;4982311;28;20038;-53
2022/01/24 02:33:49;;;;;;;13.90;7.27;;;;;;;0.31;100.00;100238.25;4982918;28;20030;-52
2022/01/24 02:36:23;;;;;;;13.23;8.13;;;;;;;0.30;100.00;100242.44;4985596;28;20041;-52
2022/01/24 02:49:33;;;;;;;16.30;6.80;;;;;;;0.29;100.00;100237.34;4982732;28;20038;-55
2022/01/24 02:52:08;;;;;;;12.70;7.47;;;;;;;0.27;100.00;100234.72;4983031;28;20033;-53
2022/01/24 02:54:36;;;;;;;15.35;9.10;;;;;;;0.26;100.00;100239.69;4986081;28;20104;-56
2022/01/24 02:57:04;;;;;;;16.30;9.37;;;;;;;0.28;100.00;100233.06;4985429;28;20066;-55
2022/01/24 02:59:30;;;;;;;18.93;9.47;;;;;;;0.31;100.00;100225.66;4982298;28;20477;-54
2022/01/24 03:01:56;;;;;;;15.80;9.13;;;;;;;0.28;100.00;100230.56;4983641;28;20469;-54
2022/01/24 03:04:21;;;;;;;15.40;9.10;;;;;;;0.27;100.00;100241.44;4985928;28;20417;-52
2022/01/24 03:06:47;;;;;;;18.10;11.00;;;;;;;0.34;100.00;100239.25;4977507;28;20033;-53
2022/01/24 03:09:14;;;;;;;18.33;9.03;;;;;;;0.24;100.00;100226.16;4982710;28;20030;-56
2022/01/24 03:14:23;;;;;;;14.23;8.03;;;;;;;0.21;100.00;100236.94;4985701;28;20081;-54
2022/01/24 03:16:49;;;;;;;14.47;7.97;;;;;;;0.27;100.00;100236.38;4984746;28;20045;-55
2022/01/24 03:19:17;;;;;;;14.27;8.67;;;;;;;0.31;100.00;100235.72;4981926;28;20236;-57
2022/01/24 03:21:43;;;;;;;11.83;7.93;;;;;;;0.29;100.00;100230.63;4984918;28;20507;-55
2022/01/24 03:24:09;;;;;;;13.93;7.33;;;;;;;0.26;100.00;100239.69;4984093;28;20081;-54
2022/01/24 03:26:35;;;;;;;14.77;8.10;;;;;;;0.26;100.00;100245.59;4972511;28;20041;-54
2022/01/24 03:29:00;;;;;;;14.30;8.03;;;;;;;0.26;100.00;100239.69;4978810;28;20401;-57
2022/01/24 03:31:26;;;;;;;10.67;7.83;;;;;;;0.22;100.00;100242.84;4982446;28;20717;-55
2022/01/24 03:33:51;;;;;;;18.83;7.83;;;;;;;0.23;100.00;100252.16;4982398;28;20400;-58
2022/01/24 03:36:17;;;;;;;13.17;7.57;;;;;;;0.26;100.00;100252.31;4980338;28;20046;-54
2022/01/24 03:38:42;;;;;;;16.47;7.83;;;;;;;0.26;100.00;100258.22;4979148;28;20564;-57
2022/01/24 03:41:08;;;;;;;12.07;7.73;;;;;;;0.21;100.00;100257.13;4982063;28;20578;-57
2022/01/24 03:43:34;;;;;;;14.50;7.53;;;;;;;0.20;100.00;100257.06;4981397;28;20027;-57
2022/01/24 03:46:24;;;;;;;11.53;6.90;;;;;;;0.22;100.00;100263.03;4978297;28;20061;-57
2022/01/24 03:48:55;;;;;;;13.37;8.03;;;;;;;0.15;100.00;100255.97;4980275;28;20072;-54
2022/01/24 03:51:21;;;;;;;16.90;8.63;;;;;;;0.18;100.00;100263.69;4981948;28;20037;-56
2022/01/24 03:53:47;;;;;;;22.97;9.27;;;;;;;0.12;100.00;100265.94;4980255;28;20034;-56
2022/01/24 03:56:13;;;;;;;16.93;9.80;;;;;;;0.08;100.00;100264.91;4978821;28;20741;-57
2022/01/24 03:58:41;;;;;;;31.07;10.47;;;;;;;0.12;100.00;100273.50;4979969;28;20046;-55
2022/01/24 04:01:09;;;;;;;15.27;8.53;;;;;;;0.13;100.00;100265.97;4982676;28;20082;-56
2022/01/24 04:03:37;;;;;;;14.53;8.27;;;;;;;0.11;100.00;100272.63;4979597;28;20030;-57
2022/01/24 04:06:04;;;;;;;15.73;7.83;;;;;;;0.15;100.00;100273.63;4978843;28;20057;-56
2022/01/24 04:08:30;;;;;;;14.40;8.47;;;;;;;0.09;100.00;100273.31;4979607;28;20080;-56
2022/01/24 04:10:57;;;;;;;12.87;8.37;;;;;;;0.03;100.00;100265.47;4981991;28;20022;-55
2022/01/24 04:23:46;;;;;;;14.57;8.77;;;;;;;-0.09;100.00;100280.88;4981945;28;20511;-55
2022/01/24 04:26:12;;;;;;;16.40;9.00;;;;;;;-0.09;100.00;100279.22;4979842;28;20026;-52
2022/01/24 04:28:37;;;;;;;15.13;8.63;;;;;;;-0.14;100.00;100278.13;4981808;28;20208;-56
2022/01/24 04:31:03;;;;;;;15.73;8.70;;;;;;;-0.23;100.00;100282.69;4982428;28;20415;-57
2022/01/24 04:33:28;;;;;;;22.27;9.70;;;;;;;-0.19;100.00;100286.22;4982234;28;20255;-57
2022/01/24 04:35:54;;;;;;;14.20;9.57;;;;;;;-0.15;100.00;100283.06;4982374;28;20050;-55
2022/01/24 04:38:19;;;;;;;15.53;9.20;;;;;;;-0.20;100.00;100275.28;4984141;28;20276;-56
2022/01/24 04:40:44;;;;;;;17.20;8.70;;;;;;;-0.20;100.00;100282.84;4980629;28;20030;-57
2022/01/24 04:43:52;;;;;;;17.37;9.17;;;;;;;-0.20;100.00;100290.41;4980580;28;20058;-56
2022/01/24 04:51:51;;;;;;;21.90;10.17;;;;;;;-0.22;100.00;100297.03;4981983;28;20049;-57
2022/01/24 04:56:29;;;;;;;17.07;9.77;;;;;;;-0.14;100.00;100293.25;4981191;28;20392;-57
2022/01/24 04:58:55;;;;;;;18.47;10.57;;;;;;;-0.16;100.00;100296.44;4983331;28;20058;-54
2022/01/24 05:01:20;;;;;;;19.43;10.03;;;;;;;-0.14;100.00;100295.75;4981302;28;20038;-57
2022/01/24 05:03:45;;;;;;;17.87;9.10;;;;;;;-0.13;100.00;100294.09;4978389;28;20061;-56
2022/01/24 05:06:11;;;;;;;16.43;10.10;;;;;;;-0.14;100.00;100302.44;4982845;28;20404;-57
2022/01/24 05:08:36;;;;;;;15.73;9.00;;;;;;;-0.16;100.00;100314.09;4983655;28;20030;-57
2022/01/24 05:11:07;;;;;;;15.03;9.03;;;;;;;-0.19;100.00;100312.31;4981237;28;20572;-53
2022/01/24 05:24:22;;;;;;;17.00;10.90;;;;;;;-0.17;100.00;100323.31;4981533;28;20169;-57
2022/01/24 05:26:47;;;;;;;18.27;10.47;;;;;;;-0.30;100.00;100318.47;4983204;28;20101;-57
2022/01/24 05:29:13;;;;;;;18.40;10.00;;;;;;;-0.23;100.00;100323.00;4981052;28;20050;-57
2022/01/24 05:31:38;;;;;;;16.03;9.90;;;;;;;-0.24;100.00;100325.44;4977668;28;20066;-54
2022/01/24 05:34:03;;;;;;;14.80;8.50;;;;;;;-0.27;100.00;100322.78;4978069;28;20034;-57
2022/01/24 05:36:29;;;;;;;13.73;9.07;;;;;;;-0.24;100.00;100326.31;4980622;28;20033;-55
2022/01/24 05:38:54;;;;;;;13.23;8.20;;;;;;;-0.26;100.00;100332.06;4979532;28;20539;-56
2022/01/24 05:41:20;;;;;;;16.30;9.30;;;;;;;-0.22;100.00;100328.94;4980666;28;20062;-57
2022/01/24 05:43:46;;;;;;;13.63;9.40;;;;;;;-0.27;100.00;100323.66;4981699;28;20041;-57
2022/01/24 05:46:12;;;;;;;20.40;11.03;;;;;;;-0.30;100.00;100326.03;4981711;28;20026;-55
2022/01/24 05:48:37;;;;;;;21.17;11.63;;;;;;;-0.28;100.00;100324.44;4978916;28;20049;-57
2022/01/24 05:51:02;;;;;;;29.77;15.37;;;;;;;-0.31;100.00;100316.72;4977228;28;20027;-57
2022/01/24 05:53:28;;;;;;;24.37;15.03;;;;;;;-0.33;100.00;100324.97;4981783;28;20837;-58
2022/01/24 05:55:54;;;;;;;65.03;25.83;;;;;;;-0.35;100.00;100324.91;4982007;28;20078;-58
2022/01/24 05:58:20;;;;;;;145.03;56.23;;;;;;;-0.27;100.00;100332.84;4977885;28;20069;-56
2022/01/24 06:00:45;;;;;;;107.77;53.70;;;;;;;-0.29;100.00;100332.75;4979304;28;20560;-59
2022/01/24 06:03:11;;;;;;;80.93;44.23;;;;;;;-0.30;100.00;100327.66;4979180;28;20544;-56
2022/01/24 06:05:36;;;;;;;113.17;60.13;;;;;;;-0.29;100.00;100335.28;4980788;28;20500;-58
2022/01/24 06:08:02;;;;;;;64.30;39.03;;;;;;;-0.30;100.00;100333.56;4977717;28;20030;-60
2022/01/24 06:10:27;;;;;;;52.40;31.83;;;;;;;-0.26;100.00;100337.13;4977748;28;20046;-59
2022/01/24 06:12:53;;;;;;;43.00;27.57;;;;;;;-0.29;100.00;100326.84;4980336;28;20026;-59
2022/01/24 06:15:18;;;;;;;27.20;18.43;;;;;;;-0.25;100.00;100332.13;4979978;28;20088;-58
2022/01/24 06:17:43;;;;;;;23.23;14.83;;;;;;;-0.24;100.00;100326.31;4978233;28;20089;-60
2022/01/24 06:20:09;;;;;;;50.87;30.97;;;;;;;-0.22;100.00;100331.44;4980022;28;20042;-60
2022/01/24 06:22:39;;;;;;;59.90;39.83;;;;;;;-0.19;100.00;100331.59;4981933;28;20477;-56
2022/01/24 06:25:07;;;;;;;28.20;19.83;;;;;;;-0.21;100.00;100331.50;4982376;28;20055;-59
2022/01/24 06:27:33;;;;;;;18.80;12.80;;;;;;;-0.21;100.00;100341.59;4978515;28;20034;-59
2022/01/24 06:29:58;;;;;;;19.83;11.50;;;;;;;-0.25;100.00;100337.19;4981137;28;20065;-58
2022/01/24 06:32:24;;;;;;;18.53;11.53;;;;;;;-0.19;100.00;100341.66;4981272;28;20061;-57
2022/01/24 06:34:49;;;;;;;19.10;11.90;;;;;;;-0.18;100.00;100353.50;4978656;28;20034;-60
2022/01/24 06:37:14;;;;;;;20.30;10.63;;;;;;;-0.21;100.00;100344.09;4977195;28;20162;-58
2022/01/24 06:39:40;;;;;;;20.17;10.60;;;;;;;-0.26;100.00;100343.03;4978175;28;20037;-60
2022/01/24 06:44:33;;;;;;;18.30;10.83;;;;;;;-0.24;100.00;100358.19;4979396;28;20034;-60
2022/01/24 06:46:58;;;;;;;19.87;11.70;;;;;;;-0.24;100.00;100366.63;4980440;28;20037;-60
2022/01/24 06:49:24;;;;;;;17.47;10.00;;;;;;;-0.23;100.00;100368.38;4980372;28;20039;-60
2022/01/24 06:51:49;;;;;;;18.07;10.40;;;;;;;-0.22;100.00;100371.75;4979495;28;20516;-62
2022/01/24 06:54:14;;;;;;;21.83;11.40;;;;;;;-0.17;100.00;100372.88;4980423;28;20053;-59
2022/01/24 06:56:41;;;;;;;18.17;12.20;;;;;;;-0.16;100.00;100369.53;4976685;28;20037;-57
2022/01/24 06:59:07;;;;;;;22.63;12.80;;;;;;;-0.14;100.00;100376.41;4978613;28;20069;-60
2022/01/24 07:01:33;;;;;;;19.33;11.90;;;;;;;-0.12;100.00;100371.44;4983506;28;20065;-60
2022/01/24 07:03:58;;;;;;;20.10;11.20;;;;;;;-0.08;100.00;100376.69;4981591;28;20424;-63
2022/01/24 07:06:24;;;;;;;18.50;11.00;;;;;;;-0.06;100.00;100380.19;4981692;28;20497;-60
2022/01/24 07:08:49;;;;;;;17.23;10.77;;;;;;;0.03;100.00;100381.44;4982653;28;20033;-59
2022/01/24 07:11:14;;;;;;;20.47;11.40;;;;;;;0.01;100.00;100376.31;4984014;28;20026;-58
2022/01/24 07:13:40;;;;;;;19.87;11.70;;;;;;;-0.01;100.00;100371.22;4980651;28;20030;-59
2022/01/24 07:16:06;;;;;;;19.60;11.07;;;;;;;-0.01;100.00;100381.28;4982289;28;20635;-59
2022/01/24 07:21:00;;;;;;;17.53;9.90;;;;;;;0.03;100.00;100387.34;4984705;28;20105;-59
2022/01/24 07:23:25;;;;;;;18.10;10.73;;;;;;;0.07;100.00;100381.66;4983052;28;20178;-59
2022/01/24 07:25:51;;;;;;;18.90;10.60;;;;;;;0.08;100.00;100385.94;4980178;28;20223;-57
2022/01/24 07:28:18;;;;;;;18.77;10.33;;;;;;;0.18;100.00;100394.81;4983266;28;20034;-59
2022/01/24 07:30:45;;;;;;;19.57;12.17;;;;;;;0.12;100.00;100397.03;4985477;28;20436;-58
2022/01/24 07:33:11;;;;;;;22.20;10.67;;;;;;;0.14;100.00;100397.97;4980583;28;20034;-57
2022/01/24 07:35:37;;;;;;;23.20;12.73;;;;;;;0.15;100.00;100405.63;4983429;28;20038;-57
2022/01/24 07:38:05;;;;;;;18.30;11.27;;;;;;;0.16;100.00;100406.47;4983818;28;20065;-58
2022/01/24 07:40:36;;;;;;;23.97;12.50;;;;;;;0.14;100.00;100405.53;4999687;28;20030;-58
2022/01/24 07:43:12;;;;;;;17.60;12.03;;;;;;;0.19;100.00;100406.63;4982982;28;20209;-59
2022/01/24 07:45:44;;;;;;;20.07;12.30;;;;;;;0.21;100.00;100410.94;4982676;28;20037;-59
2022/01/24 07:48:10;;;;;;;18.17;10.30;;;;;;;0.28;100.00;100427.28;4982607;28;20461;-58
2022/01/24 07:50:40;;;;;;;18.40;10.60;;;;;;;0.32;100.00;100424.97;4981691;28;20528;-58
2022/01/24 07:53:06;;;;;;;17.43;10.17;;;;;;;0.33;100.00;100428.38;4980487;28;20342;-57
2022/01/24 07:55:33;;;;;;;17.03;10.20;;;;;;;0.30;100.00;100430.72;4981667;28;20053;-58
2022/01/24 07:57:59;;;;;;;20.27;11.27;;;;;;;0.31;100.00;100434.97;4983607;28;20113;-59
2022/01/24 08:00:24;;;;;;;15.00;9.13;;;;;;;0.23;100.00;100431.22;4984147;28;20559;-58
2022/01/24 08:02:51;;;;;;;18.17;8.70;;;;;;;0.19;100.00;100442.81;4980787;28;20379;-60
2022/01/24 08:05:17;;;;;;;21.80;10.20;;;;;;;0.20;100.00;100451.25;4981871;28;20026;-58
2022/01/24 08:07:42;;;;;;;16.70;10.03;;;;;;;0.16;100.00;100450.22;4983242;28;20030;-59
2022/01/24 08:10:09;;;;;;;16.17;9.17;;;;;;;0.25;100.00;100447.31;4980610;28;20022;-62
2022/01/24 08:12:35;;;;;;;16.50;9.63;;;;;;;0.30;100.00;100453.41;4981819;28;20038;-59
2022/01/24 08:15:02;;;;;;;16.43;9.30;;;;;;;0.35;100.00;100459.56;4983975;28;20629;-59
2022/01/24 08:17:30;;;;;;;16.20;8.90;;;;;;;0.32;100.00;100460.28;4982760;28;20042;-60
2022/01/24 08:19:56;;;;;;;20.23;9.20;;;;;;;0.35;100.00;100460.44;4982911;28;20366;-60
2022/01/24 08:22:21;;;;;;;19.07;10.07;;;;;;;0.44;100.00;100455.00;4981841;28;20038;-60
2022/01/24 08:24:49;;;;;;;16.03;10.20;;;;;;;0.41;100.00;100454.84;4982213;28;20030;-58
2022/01/24 08:27:18;;;;;;;22.63;10.43;;;;;;;0.45;100.00;100464.31;4981451;28;20042;-60
2022/01/24 08:29:45;;;;;;;28.80;15.43;;;;;;;0.50;100.00;100464.53;4979401;28;20602;-58
2022/01/24 08:32:11;;;;;;;29.83;17.33;;;;;;;0.63;100.00;100474.47;4979702;28;20128;-59
2022/01/24 08:34:38;;;;;;;20.73;13.63;;;;;;;0.60;100.00;100472.63;4984548;28;20030;-57
2022/01/24 08:37:04;;;;;;;19.63;11.77;;;;;;;0.61;100.00;100471.84;4984643;28;20034;-57
2022/01/24 08:39:30;;;;;;;21.63;15.43;;;;;;;0.62;100.00;100478.63;4980163;28;20053;-58
2022/01/24 08:44:34;;;;;;;19.53;11.70;;;;;;;0.71;100.00;100484.16;4986143;28;20101;-59
2022/01/24 08:47:00;;;;;;;19.40;12.73;;;;;;;0.71;100.00;100484.16;4981383;28;20023;-59
2022/01/24 08:49:25;;;;;;;23.40;13.30;;;;;;;0.71;100.00;100484.16;4978148;28;20153;-57
2022/01/24 08:51:51;;;;;;;19.67;12.23;;;;;;;0.76;100.00;100485.25;4980245;28;20118;-59
2022/01/24 08:54:18;;;;;;;20.97;11.27;;;;;;;0.84;100.00;100476.38;4981705;28;20064;-61
2022/01/24 08:56:45;;;;;;;18.77;11.77;;;;;;;0.81;100.00;100473.69;4980881;28;20046;-59
2022/01/24 08:59:11;;;;;;;16.63;10.57;;;;;;;0.85;100.00;100483.16;4978941;28;20632;-59
2022/01/24 09:01:37;;;;;;;18.07;10.97;;;;;;;0.85;100.00;100480.63;4981001;28;20046;-61
2022/01/24 09:04:02;;;;;;;20.93;11.93;;;;;;;0.87;100.00;100491.69;4981514;28;20459;-60
2022/01/24 09:06:29;;;;;;;20.53;12.43;;;;;;;0.90;100.00;100485.91;4980226;28;20058;-61
2022/01/24 09:08:56;;;;;;;18.33;10.97;;;;;;;0.77;100.00;100494.53;4979531;28;20477;-59
2022/01/24 09:11:31;;;;;;;22.30;11.43;;;;;;;0.80;100.00;100494.69;4981917;28;20552;-59
2022/01/24 09:13:57;;;;;;;17.27;11.00;;;;;;;0.84;100.00;100498.25;4997175;28;20073;-59
2022/01/24 09:16:24;;;;;;;21.27;12.53;;;;;;;0.88;100.00;100498.47;4981726;28;20034;-60
2022/01/24 09:18:49;;;;;;;25.77;12.67;;;;;;;0.89;100.00;100499.34;4980944;28;20065;-59
2022/01/24 09:21:15;;;;;;;25.43;14.67;;;;;;;0.90;100.00;100512.00;4982031;28;20499;-60
2022/01/24 09:23:40;;;;;;;23.37;14.27;;;;;;;0.82;100.00;100513.28;4982331;28;20493;-59
2022/01/24 09:26:05;;;;;;;22.67;13.40;;;;;;;0.84;100.00;100515.91;4980774;28;20446;-59
2022/01/24 09:28:31;;;;;;;21.43;12.17;;;;;;;0.77;100.00;100517.25;4978679;28;20222;-60
2022/01/24 09:30:57;;;;;;;96.07;41.77;;;;;;;0.81;100.00;100519.13;4980803;28;20030;-59
2022/01/24 09:33:25;;;;;;;47.43;25.57;;;;;;;0.84;100.00;100515.91;4978002;28;20034;-60
2022/01/24 09:35:52;;;;;;;25.87;14.90;;;;;;;0.93;100.00;100518.88;4979979;28;20030;-58
2022/01/24 09:38:20;;;;;;;26.70;15.27;;;;;;;0.75;100.00;100516.31;4981250;28;20034;-59
2022/01/24 09:40:46;;;;;;;29.10;15.47;;;;;;;0.72;100.00;100521.19;4982655;28;20389;-60
2022/01/24 09:43:11;;;;;;;32.03;16.03;;;;;;;0.82;100.00;100513.28;4978533;28;20726;-58
2022/01/24 09:45:37;;;;;;;25.73;16.27;;;;;;;0.85;100.00;100518.50;4979720;28;20038;-59
2022/01/24 09:48:03;;;;;;;28.50;15.90;;;;;;;0.85;100.00;100510.91;4981773;28;20338;-58
2022/01/24 09:50:29;;;;;;;22.40;12.40;;;;;;;0.81;100.00;100509.03;4981305;28;20049;-58
2022/01/24 09:52:55;;;;;;;22.27;13.10;;;;;;;0.75;100.00;100508.75;4978574;28;20042;-60
2022/01/24 09:55:24;;;;;;;28.43;14.30;;;;;;;1.00;100.00;100512.47;4979112;28;20234;-57
2022/01/24 09:57:51;;;;;;;24.37;13.27;;;;;;;1.10;100.00;100522.25;4981016;28;20594;-58
2022/01/24 10:00:22;;;;;;;21.07;12.80;;;;;;;1.00;100.00;100518.38;4978864;28;20113;-59
2022/01/24 10:02:50;;;;;;;20.57;12.97;;;;;;;1.02;100.00;100505.84;4977753;28;20038;-59
2022/01/24 10:05:23;;;;;;;24.83;12.53;;;;;;;1.10;100.00;100524.78;4982581;28;20031;-59
2022/01/24 10:07:59;;;;;;;21.33;11.63;;;;;;;1.27;100.00;100511.28;4983191;28;20117;-60
2022/01/24 10:10:31;;;;;;;17.10;10.27;;;;;;;1.04;100.00;100505.13;4976238;28;20540;-59
2022/01/24 10:19:09;;;;;;;21.60;12.70;;;;;;;1.40;100.00;100495.06;4981277;28;20034;-58
2022/01/24 10:22:00;;;;;;;23.50;14.03;;;;;;;1.18;100.00;100488.13;4977219;28;20042;-59
2022/01/24 10:24:26;;;;;;;20.03;12.37;;;;;;;1.29;100.00;100502.13;4981083;28;20038;-60
2022/01/24 10:27:15;;;;;;;19.90;12.00;;;;;;;1.42;100.00;100490.94;4981046;28;20067;-60
2022/01/24 10:29:47;;;;;;;22.00;12.80;;;;;;;1.50;100.00;100492.16;4978450;28;20041;-59
2022/01/24 10:32:30;;;;;;;21.57;11.80;;;;;;;1.12;100.00;100492.84;4980126;28;20042;-61
2022/01/24 10:35:16;;;;;;;21.90;13.60;;;;;;;1.01;100.00;100489.84;4985117;28;20030;-61
2022/01/24 10:37:41;;;;;;;;;;;;;;;1.00;100.00;100482.16;4984825;28;20038;-60
2022/01/24 10:40:19;;;;;;;23.83;13.07;;;;;;;0.83;100.00;100474.66;4983688;28;20394;-58
2022/01/24 10:42:55;;;;;;;26.37;11.80;;;;;;;1.06;100.00;100485.00;4986702;28;20053;-57
2022/01/24 10:45:22;;;;;;;32.63;17.00;;;;;;;1.05;100.00;100483.25;4983997;28;20096;-59
2022/01/24 10:47:52;;;;;;;26.33;15.63;;;;;;;0.83;100.00;100483.88;4981897;28;20549;-58
2022/01/24 10:50:28;;;;;;;43.07;21.43;;;;;;;0.59;100.00;100491.09;4982038;28;20030;-59
2022/01/24 10:52:54;;;;;;;45.37;21.30;;;;;;;0.75;100.00;100486.03;4982343;28;20103;-58
2022/01/24 10:55:22;;;;;;;29.40;14.23;;;;;;;0.90;100.00;100485.91;4983275;28;20038;-61
2022/01/24 10:57:50;;;;;;;32.60;18.27;;;;;;;0.89;100.00;100491.75;4982944;28;20073;-60
2022/01/24 11:00:23;;;;;;;26.90;13.17;;;;;;;0.86;100.00;100479.84;4983292;28;20031;-60
2022/01/24 11:02:51;;;;;;;24.60;13.93;;;;;;;1.00;100.00;100493.13;4984233;28;20148;-60
2022/01/24 11:05:20;;;;;;;23.07;16.30;;;;;;;1.23;100.00;100481.63;4983969;28;20064;-60
2022/01/24 11:08:06;;;;;;;21.90;12.57;;;;;;;1.03;100.00;100487.34;4982113;28;20109;-60
2022/01/24 11:10:35;;;;;;;;;;;;;;;1.26;100.00;100472.53;4983244;28;20135;-60
2022/01/24 11:13:05;;;;;;;23.63;11.90;;;;;;;1.02;100.00;100478.91;4984581;28;19918;-58
2022/01/24 11:15:32;;;;;;;26.67;13.80;;;;;;;0.99;100.00;100485.47;4984015;28;20049;-60
2022/01/24 11:17:59;;;;;;;26.37;14.13;;;;;;;1.15;100.00;100482.91;4982599;28;20038;-60
2022/01/24 11:20:30;;;;;;;30.97;14.63;;;;;;;1.12;100.00;100477.72;4983666;28;20030;-60
2022/01/24 11:22:59;;;;;;;26.30;14.23;;;;;;;1.33;100.00;100471.16;4987566;28;20046;-59
2022/01/24 11:25:27;;;;;;;27.10;14.70;;;;;;;1.33;100.00;100466.09;4983197;28;20042;-60
2022/01/24 11:27:53;;;;;;;31.33;16.37;;;;;;;1.37;100.00;100471.38;4980300;28;20122;-60
2022/01/24 11:30:25;;;;;;;25.53;14.73;;;;;;;1.45;100.00;100474.25;4983241;28;20277;-60
2022/01/24 11:32:58;;;;;;;25.93;14.30;;;;;;;1.30;100.00;100459.25;4982380;28;20414;-59
2022/01/24 11:35:38;;;;;;;26.67;14.70;;;;;;;1.51;100.00;100466.97;4981590;28;20030;-61
2022/01/24 11:38:04;;;;;;;23.53;13.43;;;;;;;1.51;100.00;100466.97;4983052;28;20037;-61
2022/01/24 11:40:47;;;;;;;22.03;13.27;;;;;;;1.43;100.00;100460.69;4982341;28;20030;-61
2022/01/24 11:43:33;;;;;;;25.97;14.17;;;;;;;1.39;100.00;100461.34;4984690;28;20088;-61
2022/01/24 11:46:05;;;;;;;26.07;13.83;;;;;;;1.48;100.00;100461.78;4979658;28;20328;-59
2022/01/24 11:48:32;;;;;;;29.63;15.90;;;;;;;1.57;100.00;100451.22;4981018;28;20583;-60
2022/01/24 11:51:11;;;;;;;31.33;16.23;;;;;;;1.71;100.00;100445.09;4980893;28;20049;-60
2022/01/24 11:53:41;;;;;;;24.97;14.63;;;;;;;1.75;100.00;100444.44;4979952;28;20231;-60
2022/01/24 11:56:25;;;;;;;22.67;14.23;;;;;;;1.93;100.00;100444.41;4979508;28;20664;-59
2022/01/24 11:59:12;;;;;;;23.57;13.87;;;;;;;1.98;100.00;100450.53;4979448;28;20174;-60
2022/01/24 12:01:39;;;;;;;24.90;15.23;;;;;;;2.04;100.00;100443.22;4981533;28;20041;-57
2022/01/24 12:04:04;;;;;;;24.53;14.00;;;;;;;2.00;100.00;100442.22;4980740;28;20050;-60
2022/01/24 12:06:30;;;;;;;27.17;14.13;;;;;;;2.13;100.00;100438.56;4982769;28;20043;-58
2022/01/24 12:09:05;;;;;;;31.03;15.13;;;;;;;2.25;100.00;100431.50;4982923;28;20041;-59
2022/01/24 12:11:34;;;;;;;30.30;15.23;;;;;;;2.13;100.00;100434.38;4984163;28;20033;-60
2022/01/24 12:14:13;;;;;;;25.60;14.77;;;;;;;2.16;100.00;100437.06;4980911;28;20034;-58
2022/01/24 12:16:42;;;;;;;27.10;15.33;;;;;;;2.19;100.00;100439.69;4979912;28;20022;-58
2022/01/24 12:19:10;;;;;;;26.07;15.37;;;;;;;2.11;100.00;100435.13;4983169;28;20116;-59
2022/01/24 12:21:38;;;;;;;30.57;14.37;;;;;;;2.07;100.00;100434.13;4983163;28;20062;-61
2022/01/24 12:24:14;;;;;;;25.77;13.73;;;;;;;2.20;100.00;100427.94;4978491;28;20118;-60
2022/01/24 12:26:42;;;;;;;26.97;14.63;;;;;;;2.31;100.00;100431.75;4980235;28;20030;-60
2022/01/24 12:29:41;;;;;;;22.30;13.77;;;;;;;2.36;100.00;100432.84;4983045;28;20033;-58
2022/01/24 12:32:20;;;;;;;24.40;14.23;;;;;;;2.36;100.00;100435.38;4978031;28;20042;-59
2022/01/24 12:34:46;;;;;;;22.93;13.53;;;;;;;2.36;100.00;100425.25;4979573;28;20096;-60
2022/01/24 12:37:23;;;;;;;30.73;14.93;;;;;;;2.43;100.00;100419.63;4984221;28;20034;-57
2022/01/24 12:39:53;;;;;;;26.93;15.20;;;;;;;2.40;100.00;100414.44;4980672;28;20045;-59
2022/01/24 12:42:33;;;;;;;28.53;15.60;;;;;;;2.52;100.00;100421.69;4978005;28;20042;-55
2022/01/24 12:47:42;;;;;;;28.80;14.77;;;;;;;2.47;100.00;100421.47;4981110;28;20447;-57
2022/01/24 12:50:10;;;;;;;25.87;13.93;;;;;;;2.50;100.00;100420.75;4979844;28;20034;-60
2022/01/24 12:52:37;;;;;;;27.40;14.70;;;;;;;2.38;100.00;100421.09;4978423;28;20045;-60
2022/01/24 12:55:04;;;;;;;27.50;15.87;;;;;;;2.46;100.00;100419.75;4979893;28;20037;-59
2022/01/24 12:57:32;;;;;;;26.07;14.30;;;;;;;2.39;100.00;100420.28;4981468;28;20041;-59
2022/01/24 13:00:07;;;;;;;22.83;12.57;;;;;;;2.36;100.00;100416.78;4978436;28;20054;-60
2022/01/24 13:02:33;;;;;;;;;;;;;;;2.26;100.00;100416.38;4979576;28;20137;-59
2022/01/24 13:05:03;;;;;;;23.77;13.17;;;;;;;2.27;100.00;100413.06;4981425;28;19922;-59
2022/01/24 13:07:30;;;;;;;20.00;11.70;;;;;;;2.21;100.00;100420.38;4983655;28;20114;-60
2022/01/24 13:10:03;;;;;;;22.63;12.57;;;;;;;2.31;100.00;100421.66;4982098;28;20047;-60